Time;durP1;ratioP1;P1;durP2;ratioP2;P2;SDS_P1;SDS_P2;PMS_P1;PMS_P2;Temp;Humidity;BMP_temperature;BMP_pressure;BME280_temperature;BME280_humidity;BME280_pressure;Samples;Min_cycle;Max_cycle;Signal;HPM_P1;HPM_P2
2021/11/12 00:13:41;;;;;;;19.87;11.00;;;;;;;2.92;60.17;100082.53;1726679;82;21128;-55
2021/11/12 00:16:07;;;;;;;21.07;10.43;;;;;;;2.91;60.33;100078.11;1725992;82;21116;-56
2021/11/12 00:18:35;;;;;;;25.03;11.40;;;;;;;2.90;60.49;100079.00;1727752;82;21212;-56
2021/11/12 00:21:03;;;;;;;17.43;10.43;;;;;;;2.89;60.63;100072.80;1723005;82;21156;-56
2021/11/12 00:23:31;;;;;;;16.93;10.57;;;;;;;2.90;60.70;100076.34;1733194;82;21445;-56
2021/11/12 00:25:58;;;;;;;20.23;11.23;;;;;;;2.90;60.84;100074.56;1728531;82;20918;-56
2021/11/12 00:28:26;;;;;;;19.03;11.83;;;;;;;2.91;60.94;100075.45;1728797;82;20935;-55
2021/11/12 00:31:11;;;;;;;17.67;10.40;;;;;;;2.91;61.01;100079.44;1718909;82;21128;-56
2021/11/12 00:36:00;;;;;;;18.40;9.87;;;;;;;2.92;61.15;100063.47;1718029;82;22384;-57
2021/11/12 00:38:21;;;;;;;18.73;10.93;;;;;;;2.93;61.23;100067.02;1714934;82;21113;-57
2021/11/12 00:40:56;;;;;;;20.70;10.07;;;;;;;2.93;61.34;100062.58;1723415;82;21358;-57
2021/11/12 00:44:01;;;;;;;23.13;10.93;;;;;;;2.94;61.40;100059.02;1716984;82;21102;-57
2021/11/12 00:45:51;;;;;;;16.60;10.23;;;;;;;2.93;61.44;100059.03;1700179;82;21452;-57
2021/11/12 00:48:27;;;;;;;22.57;11.80;;;;;;;2.94;61.50;100054.16;1717834;82;21295;-57
2021/11/12 00:55:43;;;;;;;20.03;10.37;;;;;;;2.90;61.78;100046.65;1718489;82;21132;-57
2021/11/12 00:58:12;;;;;;;20.97;11.80;;;;;;;2.91;61.86;100046.20;1719435;82;21088;-57
2021/11/12 01:00:38;;;;;;;17.67;10.57;;;;;;;2.90;61.92;100049.31;1723658;82;21065;-56
2021/11/12 01:03:04;;;;;;;17.13;10.10;;;;;;;2.90;61.98;100043.99;1722294;82;21352;-57
2021/11/12 01:05:31;;;;;;;18.27;11.27;;;;;;;2.89;62.06;100040.90;1720409;82;21070;-57
2021/11/12 01:08:01;;;;;;;15.93;11.10;;;;;;;2.89;62.15;100044.89;1718350;82;21056;-57
2021/11/12 01:10:29;;;;;;;19.27;10.57;;;;;;;2.89;62.23;100034.25;1723780;82;20923;-58
2021/11/12 01:12:58;;;;;;;18.63;11.37;;;;;;;2.88;62.28;100032.52;1724347;82;20884;-57
2021/11/12 01:15:24;;;;;;;16.73;10.07;;;;;;;2.88;62.33;100037.84;1728694;82;20874;-57
2021/11/12 01:17:51;;;;;;;20.30;10.83;;;;;;;2.88;62.42;100036.51;1727823;82;20879;-57
2021/11/12 01:20:18;;;;;;;19.57;11.30;;;;;;;2.88;62.50;100024.99;1724002;82;21089;-57
2021/11/12 01:22:45;;;;;;;20.03;10.27;;;;;;;2.88;62.58;100027.66;1724048;82;20887;-57
2021/11/12 01:25:12;;;;;;;16.60;10.43;;;;;;;2.85;62.64;100021.91;1725135;82;20907;-57
2021/11/12 01:27:39;;;;;;;15.90;9.73;;;;;;;2.84;62.72;100013.50;1727153;82;20966;-57
2021/11/12 01:30:07;;;;;;;23.47;11.37;;;;;;;2.83;62.80;100012.19;1733601;81;20911;-56
2021/11/12 01:32:34;;;;;;;19.43;9.53;;;;;;;2.80;62.87;100013.58;1732534;82;21432;-57
2021/11/12 01:35:03;;;;;;;18.57;10.00;;;;;;;2.78;62.96;100006.95;1727579;82;21983;-57
2021/11/12 01:37:30;;;;;;;19.87;11.47;;;;;;;2.77;63.06;100006.95;1730386;82;20867;-57
2021/11/12 01:40:00;;;;;;;19.33;10.60;;;;;;;2.75;63.19;100012.73;1730187;82;21859;-57
2021/11/12 01:42:28;;;;;;;18.40;10.57;;;;;;;2.73;63.29;100002.56;1733240;82;20950;-57
2021/11/12 01:45:08;;;;;;;17.87;9.60;;;;;;;2.71;63.39;100005.72;1729820;82;20942;-57
2021/11/12 01:47:38;;;;;;;18.40;11.17;;;;;;;2.69;63.48;100009.72;1732686;82;21385;-57
2021/11/12 01:50:00;;;;;;;15.80;10.37;;;;;;;2.68;63.58;100001.31;1729592;82;20914;-56
2021/11/12 01:55:02;;;;;;;18.07;10.87;;;;;;;2.68;63.77;100000.42;1731918;82;20970;-57
2021/11/12 01:59:50;;;;;;;17.73;10.70;;;;;;;2.66;63.93;100001.32;1733727;82;20954;-57
2021/11/12 02:02:17;;;;;;;19.03;11.30;;;;;;;2.65;63.99;100000.89;1731288;82;20914;-57
2021/11/12 02:04:43;;;;;;;17.50;9.93;;;;;;;2.66;64.04;100003.09;1729999;82;20879;-57
2021/11/12 02:07:11;;;;;;;21.30;11.50;;;;;;;2.66;64.13;99997.78;1733918;82;20994;-57
2021/11/12 02:09:37;;;;;;;22.50;10.47;;;;;;;2.67;64.19;100000.88;1730306;82;20958;-57
2021/11/12 02:12:28;;;;;;;18.73;11.20;;;;;;;2.67;64.20;100003.53;1732337;82;20919;-57
2021/11/12 02:14:52;;;;;;;23.20;10.80;;;;;;;2.65;64.25;100004.88;1730235;82;20905;-57
2021/11/12 02:17:20;;;;;;;16.50;9.97;;;;;;;2.63;64.35;99999.17;1731634;82;20930;-57
2021/11/12 02:19:52;;;;;;;19.50;11.03;;;;;;;2.62;64.40;99997.41;1728838;82;20950;-57
2021/11/12 02:22:18;;;;;;;14.07;10.17;;;;;;;2.59;64.46;100000.97;1727710;82;21072;-57
2021/11/12 02:24:51;;;;;;;22.10;10.93;;;;;;;2.59;64.54;100000.97;1729231;82;20863;-57
2021/11/12 02:27:17;;;;;;;17.93;11.63;;;;;;;2.58;64.58;99997.00;1729625;82;20931;-57
2021/11/12 02:29:49;;;;;;;20.73;11.80;;;;;;;2.56;64.67;99996.13;1729196;82;20927;-57
2021/11/12 02:32:27;;;;;;;19.27;10.67;;;;;;;2.54;64.75;99991.31;1732487;82;21485;-57
2021/11/12 02:34:58;;;;;;;16.77;10.57;;;;;;;2.55;64.81;99988.60;1729483;82;21153;-58
2021/11/12 02:37:26;;;;;;;17.37;9.80;;;;;;;2.55;64.88;99989.09;1728984;82;21205;-57
2021/11/12 02:39:52;;;;;;;17.93;11.63;;;;;;;2.54;64.91;99990.86;1730791;82;21053;-57
2021/11/12 02:42:19;;;;;;;17.80;10.33;;;;;;;2.53;65.00;99988.22;1728224;82;22473;-57
2021/11/12 02:44:46;;;;;;;21.53;11.00;;;;;;;2.53;65.04;99994.86;1729012;80;21499;-57
2021/11/12 02:47:14;;;;;;;17.83;11.17;;;;;;;2.51;65.12;99993.54;1729424;82;21140;-57
2021/11/12 02:49:41;;;;;;;16.27;11.00;;;;;;;2.51;65.17;99981.59;1732773;82;21373;-57
2021/11/12 02:52:08;;;;;;;18.23;10.80;;;;;;;2.50;65.24;99987.80;1734494;82;21272;-57
2021/11/12 02:54:36;;;;;;;19.47;11.50;;;;;;;2.49;65.31;99982.05;1729648;82;21124;-57
2021/11/12 02:57:05;;;;;;;20.90;11.87;;;;;;;2.48;65.40;99986.92;1730027;82;20918;-57
2021/11/12 02:59:31;;;;;;;20.50;11.07;;;;;;;2.47;65.46;99981.62;1728693;82;21100;-57
2021/11/12 03:02:04;;;;;;;21.33;12.37;;;;;;;2.46;65.54;99974.13;1724432;82;21409;-57
2021/11/12 03:04:31;;;;;;;21.67;12.00;;;;;;;2.46;65.62;99973.25;1730122;82;20954;-57
2021/11/12 03:06:58;;;;;;;17.63;10.90;;;;;;;2.46;65.71;99975.91;1732496;82;20971;-57
2021/11/12 03:09:26;;;;;;;16.57;10.70;;;;;;;2.45;65.76;99982.11;1730193;82;21054;-57
2021/11/12 03:11:54;;;;;;;20.33;10.93;;;;;;;2.43;65.86;99983.91;1726747;82;21125;-57
2021/11/12 03:14:21;;;;;;;18.90;11.17;;;;;;;2.41;65.91;99978.60;1727501;82;21078;-57
2021/11/12 03:16:47;;;;;;;18.20;11.37;;;;;;;2.41;66.00;99984.36;1729920;82;21025;-57
2021/11/12 03:19:14;;;;;;;18.00;11.17;;;;;;;2.39;66.08;99979.06;1724961;82;21069;-57
2021/11/12 03:21:42;;;;;;;16.50;11.53;;;;;;;2.39;66.16;99980.83;1724539;82;21112;-58
2021/11/12 03:24:18;;;;;;;17.10;11.00;;;;;;;2.37;66.22;99974.69;1728033;82;21143;-58
2021/11/12 03:26:50;;;;;;;20.10;11.67;;;;;;;2.36;66.30;99979.12;1727134;82;21572;-58
2021/11/12 03:29:30;;;;;;;18.57;11.10;;;;;;;2.33;66.40;99975.16;1728511;82;21324;-58
2021/11/12 04:01:48;;;;;;;;;;;;;;;2.23;67.73;99975.70;1730941;82;21049;-57
2021/11/12 04:04:30;;;;;;;16.80;11.43;;;;;;;2.25;67.84;99971.70;1730106;82;21161;-57
2021/11/12 04:06:57;;;;;;;21.57;11.97;;;;;;;2.27;67.95;99965.49;1724016;82;21088;-57
2021/11/12 04:20:15;;;;;;;22.20;15.57;;;;;;;2.37;68.35;99965.39;1731462;82;20867;-57
2021/11/12 04:49:51;;;;;;;23.75;14.65;;;;;;;2.22;69.33;99970.41;1723773;82;21777;-57
2021/11/12 05:43:34;;;;;;;30.27;16.97;;;;;;;2.32;70.44;100008.38;1728061;82;21058;-61
2021/11/12 05:51:39;;;;;;;28.70;16.87;;;;;;;2.21;70.86;100021.31;1729924;82;21074;-58
2021/11/12 05:56:51;;;;;;;27.57;16.73;;;;;;;2.22;71.16;100019.53;1728050;82;21349;-60
2021/11/12 05:59:17;;;;;;;22.77;14.60;;;;;;;2.25;71.29;100009.78;1728934;82;21104;-58
2021/11/12 06:01:45;;;;;;;25.07;15.37;;;;;;;2.30;71.39;100013.70;1730438;82;21437;-59
2021/11/12 06:04:11;;;;;;;30.33;16.27;;;;;;;2.36;71.38;100008.34;1724066;82;21149;-58
2021/11/12 06:06:38;;;;;;;25.37;15.67;;;;;;;2.40;71.42;100010.05;1729374;82;21049;-59
2021/11/12 06:09:04;;;;;;;26.20;17.33;;;;;;;2.45;71.43;100016.20;1723135;82;21085;-58
2021/11/12 06:11:32;;;;;;;27.80;17.93;;;;;;;2.48;71.42;100016.16;1726884;82;21058;-58
2021/11/12 06:14:00;;;;;;;33.00;19.00;;;;;;;2.51;71.45;100011.26;1726201;82;20903;-58
2021/11/12 06:16:27;;;;;;;31.23;20.00;;;;;;;2.52;71.51;100011.70;1724606;82;21173;-58
2021/11/12 06:18:54;;;;;;;32.90;19.07;;;;;;;2.55;71.52;100008.53;1728525;82;21089;-57
2021/11/12 06:21:22;;;;;;;28.63;18.47;;;;;;;2.57;71.62;100006.75;1732977;82;21419;-57
2021/11/12 06:23:49;;;;;;;35.57;19.33;;;;;;;2.60;71.64;100013.36;1727941;82;20938;-57
2021/11/12 06:26:15;;;;;;;27.43;17.20;;;;;;;2.65;71.70;100018.16;1730677;82;21736;-56
2021/11/12 06:28:42;;;;;;;29.60;17.83;;;;;;;2.70;71.74;100020.78;1731148;80;21822;-57
2021/11/12 06:31:09;;;;;;;30.47;19.77;;;;;;;2.77;71.82;100020.25;1728650;82;20978;-57
2021/11/12 06:33:37;;;;;;;28.70;18.43;;;;;;;2.84;71.85;100021.48;1709432;81;21141;-57
2021/11/12 06:36:04;;;;;;;32.93;20.30;;;;;;;2.90;71.89;100024.05;1713723;82;21280;-57
2021/11/12 06:38:32;;;;;;;36.07;20.57;;;;;;;2.95;71.87;100023.56;1708464;81;22452;-57
2021/11/12 06:41:01;;;;;;;30.50;19.17;;;;;;;3.01;71.90;100020.81;1713823;82;21480;-57
2021/11/12 06:43:40;;;;;;;34.23;18.37;;;;;;;3.08;71.85;100016.73;1716925;82;21014;-57
2021/11/12 06:51:30;;;;;;;37.50;20.53;;;;;;;3.19;71.79;100006.83;1709454;82;21117;-57
2021/11/12 06:53:56;;;;;;;32.97;20.13;;;;;;;3.24;71.77;100016.48;1717475;82;20961;-57
2021/11/12 06:56:23;;;;;;;29.93;18.57;;;;;;;3.31;71.82;100013.31;1710845;82;21573;-57
2021/11/12 06:58:51;;;;;;;30.70;18.77;;;;;;;3.40;71.89;100014.02;1712899;82;21477;-56
2021/11/12 07:01:17;;;;;;;32.27;19.90;;;;;;;3.50;71.83;100008.56;1712022;82;21430;-57
2021/11/12 07:03:44;;;;;;;25.43;18.37;;;;;;;3.59;71.76;100015.95;1714852;82;21101;-57
2021/11/12 07:06:11;;;;;;;34.43;20.27;;;;;;;3.68;71.72;100009.61;1719203;82;22596;-57
2021/11/12 07:08:37;;;;;;;31.23;21.20;;;;;;;3.75;71.66;100003.27;1721034;82;21006;-57
2021/11/12 07:11:04;;;;;;;31.47;20.70;;;;;;;3.82;71.62;100007.61;1712378;82;21040;-57
2021/11/12 07:13:31;;;;;;;29.00;21.63;;;;;;;3.89;71.60;99996.40;1709673;82;21034;-57
2021/11/12 07:15:58;;;;;;;33.07;22.23;;;;;;;3.94;71.54;99995.85;1715525;82;21101;-57
2021/11/12 07:18:26;;;;;;;33.50;22.47;;;;;;;4.00;71.62;99999.73;1711942;81;21596;-57
2021/11/12 07:20:54;;;;;;;33.43;21.33;;;;;;;4.08;71.61;100005.83;1719584;82;20943;-57
2021/11/12 07:23:23;;;;;;;31.37;19.40;;;;;;;4.16;71.58;99995.91;1716248;82;21039;-57
2021/11/12 07:25:50;;;;;;;34.80;20.47;;;;;;;4.23;71.58;99994.89;1716147;82;21015;-57
2021/11/12 07:28:16;;;;;;;36.30;21.97;;;;;;;4.32;71.61;99998.72;1714436;82;20927;-57
2021/11/12 07:30:45;;;;;;;31.90;22.20;;;;;;;4.41;71.60;99992.33;1714867;82;20903;-56
2021/11/12 07:33:13;;;;;;;33.87;23.10;;;;;;;4.49;71.58;99996.59;1728444;82;20919;-57
2021/11/12 07:35:54;;;;;;;35.97;24.30;;;;;;;4.58;71.49;99997.32;1730042;81;20954;-56
2021/11/12 07:38:21;;;;;;;36.60;22.63;;;;;;;4.64;71.45;100001.19;1729791;82;20923;-57
2021/11/12 07:41:01;;;;;;;32.37;21.27;;;;;;;4.69;71.40;99996.62;1726574;82;20871;-57
2021/11/12 07:45:54;;;;;;;34.33;21.43;;;;;;;4.80;71.42;100002.17;1735970;82;20887;-57
2021/11/12 07:48:12;;;;;;;32.17;21.70;;;;;;;4.89;71.42;99998.44;1728385;82;20907;-57
2021/11/12 07:50:39;;;;;;;36.03;22.27;;;;;;;4.98;71.42;100005.36;1728511;82;20946;-56
2021/11/12 07:53:06;;;;;;;35.03;23.67;;;;;;;5.04;71.44;100006.09;1729065;80;20955;-57
2021/11/12 07:55:32;;;;;;;36.63;24.83;;;;;;;5.14;71.38;100002.33;1729652;82;21092;-56
2021/11/12 07:57:58;;;;;;;36.87;26.07;;;;;;;5.21;71.33;99999.05;1734148;82;21045;-57
2021/11/12 08:00:25;;;;;;;34.00;23.53;;;;;;;5.29;71.37;99999.76;1730043;82;21393;-57
2021/11/12 08:02:52;;;;;;;35.90;24.40;;;;;;;5.37;71.22;99998.24;1731949;82;21037;-57
2021/11/12 08:05:29;;;;;;;35.83;25.10;;;;;;;5.44;71.14;100007.89;1729500;82;20985;-57
2021/11/12 08:07:55;;;;;;;33.60;23.22;;;;;;;5.51;71.02;99997.48;1726461;82;21030;-58
2021/11/12 08:10:22;;;;;;;36.00;23.57;;;;;;;5.59;70.89;99991.50;1730185;82;21121;-57
2021/11/12 08:13:00;;;;;;;34.50;22.77;;;;;;;5.67;70.76;99989.06;1719789;82;21496;-57
2021/11/12 08:15:34;;;;;;;34.83;23.03;;;;;;;5.75;70.56;99995.55;1722775;82;21081;-57
2021/11/12 08:18:12;;;;;;;38.30;25.00;;;;;;;5.82;70.43;99994.47;1727107;82;21034;-57
2021/11/12 08:20:53;;;;;;;35.57;23.10;;;;;;;5.92;70.23;99986.69;1722620;82;22240;-57
2021/11/12 08:23:23;;;;;;;37.40;26.02;;;;;;;6.01;70.10;99981.56;1725991;82;21392;-58
2021/11/12 08:25:48;;;;;;;40.80;28.55;;;;;;;6.07;69.87;99979.59;1722712;80;21084;-56
2021/11/12 08:28:30;;;;;;;38.83;28.13;;;;;;;6.13;69.79;99981.22;1728052;80;21284;-57
2021/11/12 08:36:23;;;;;;;35.40;23.80;;;;;;;6.28;69.40;99993.32;1730978;80;21018;-57
2021/11/12 08:38:59;;;;;;;32.87;24.10;;;;;;;6.33;69.27;99984.24;1730245;80;21046;-56
2021/11/12 08:41:18;;;;;;;39.33;25.00;;;;;;;6.40;69.14;99976.92;1729366;80;21041;-56
2021/11/12 08:43:48;;;;;;;40.97;27.57;;;;;;;6.49;69.01;99983.81;1730163;80;21611;-58
2021/11/12 08:46:27;;;;;;;36.20;25.83;;;;;;;6.54;68.78;99992.61;1729711;80;21095;-57
2021/11/12 08:48:59;;;;;;;41.40;28.90;;;;;;;6.57;68.56;99985.35;1732134;80;21180;-57
2021/11/12 08:51:24;;;;;;;36.53;26.90;;;;;;;6.62;68.59;99986.12;1725136;80;24921;-58
2021/11/12 08:53:51;;;;;;;38.30;26.53;;;;;;;6.68;68.58;99983.72;1726434;80;21085;-57
2021/11/12 08:56:18;;;;;;;36.87;26.20;;;;;;;6.73;68.32;99979.98;1731536;80;21072;-56
2021/11/12 08:58:48;;;;;;;33.00;23.30;;;;;;;6.78;68.22;99983.41;1728356;80;21139;-56
2021/11/12 09:01:15;;;;;;;37.13;25.27;;;;;;;6.85;68.17;99978.75;1730978;80;21523;-56
2021/11/12 09:03:41;;;;;;;35.13;25.47;;;;;;;6.92;67.92;99969.61;1732915;80;21519;-56
2021/11/12 09:06:09;;;;;;;38.13;26.03;;;;;;;7.01;67.67;99972.48;1731449;80;21591;-57
2021/11/12 09:08:36;;;;;;;32.57;24.57;;;;;;;7.06;67.33;99978.09;1731345;80;21089;-58
2021/11/12 09:11:06;;;;;;;36.03;24.57;;;;;;;7.10;67.13;99978.89;1726819;80;21045;-57
2021/11/12 09:13:41;;;;;;;29.47;22.67;;;;;;;7.14;66.86;99985.92;1727051;80;22413;-56
2021/11/12 09:16:06;;;;;;;34.10;23.70;;;;;;;7.18;66.67;99987.10;1726032;80;21099;-57
2021/11/12 09:18:33;;;;;;;29.37;23.47;;;;;;;7.22;66.28;99987.90;1727992;80;20938;-58
2021/11/12 09:20:59;;;;;;;34.40;24.57;;;;;;;7.24;65.99;99983.34;1725977;80;21132;-57
2021/11/12 09:23:26;;;;;;;29.47;21.63;;;;;;;7.25;65.75;99975.73;1724628;80;21150;-57
2021/11/12 09:25:52;;;;;;;30.93;23.40;;;;;;;7.27;65.73;99980.59;1726349;80;21093;-57
2021/11/12 09:28:19;;;;;;;35.03;23.27;;;;;;;7.31;65.44;99981.38;1726205;80;21080;-56
2021/11/12 09:30:45;;;;;;;31.10;22.43;;;;;;;7.35;65.33;99981.22;1726057;80;21160;-57
2021/11/12 09:33:11;;;;;;;30.33;21.90;;;;;;;7.43;65.23;99972.48;1724937;80;21384;-58
2021/11/12 09:35:38;;;;;;;30.50;22.53;;;;;;;7.51;64.98;99981.14;1723821;80;22958;-57
2021/11/12 09:38:04;;;;;;;35.27;22.87;;;;;;;7.57;64.83;99975.58;1719380;80;21662;-56
2021/11/12 09:40:31;;;;;;;32.47;24.23;;;;;;;7.65;64.55;99980.72;1727688;80;21509;-56
2021/11/12 09:42:57;;;;;;;32.30;24.03;;;;;;;7.70;64.40;99975.19;1720443;80;21085;-56
2021/11/12 09:45:25;;;;;;;35.40;24.17;;;;;;;7.75;64.35;99982.14;1720678;80;21170;-56
2021/11/12 09:47:52;;;;;;;29.83;22.47;;;;;;;7.79;64.40;99980.25;1692231;80;21524;-58
2021/11/12 09:50:24;;;;;;;35.83;25.60;;;;;;;7.81;64.34;99974.38;1720474;80;21033;-56
2021/11/12 09:52:52;;;;;;;38.40;26.40;;;;;;;7.81;64.50;99967.69;1725870;80;20915;-56
2021/11/12 09:55:19;;;;;;;31.87;23.87;;;;;;;7.83;64.58;99965.34;1728998;80;20895;-56
2021/11/12 09:57:46;;;;;;;32.37;25.37;;;;;;;7.87;64.67;99968.34;1720751;80;21054;-56
2021/11/12 10:00:16;;;;;;;36.53;24.77;;;;;;;7.88;64.80;99967.42;1721091;80;21180;-57
2021/11/12 10:02:44;;;;;;;30.43;22.97;;;;;;;7.90;65.05;99963.36;1723328;80;20907;-57
2021/11/12 10:05:32;;;;;;;27.83;21.67;;;;;;;7.94;65.08;99969.88;1722168;80;21007;-57
2021/11/12 10:08:00;;;;;;;31.73;22.97;;;;;;;7.99;65.16;99964.38;1718229;80;21218;-57
2021/11/12 10:10:27;;;;;;;30.00;21.37;;;;;;;8.07;65.38;99968.14;1724495;80;21332;-57
2021/11/12 10:12:55;;;;;;;34.10;23.23;;;;;;;8.13;65.53;99963.43;1721473;80;21116;-56
2021/11/12 10:15:31;;;;;;;26.47;21.23;;;;;;;8.19;65.58;99959.65;1721774;80;21140;-58
2021/11/12 10:17:55;;;;;;;28.50;22.13;;;;;;;8.23;65.63;99961.31;1722032;80;21205;-58
2021/11/12 10:20:22;;;;;;;25.27;19.60;;;;;;;8.29;65.75;99954.38;1678301;82;21032;-56
2021/11/12 10:22:51;;;;;;;23.40;17.97;;;;;;;8.31;65.98;99958.80;1719836;81;20950;-57
2021/11/12 10:25:17;;;;;;;28.53;21.83;;;;;;;8.34;66.18;99964.49;1721032;81;21405;-58
2021/11/12 10:27:51;;;;;;;28.13;21.27;;;;;;;8.35;66.23;99957.74;1721992;80;20920;-57
2021/11/12 10:30:24;;;;;;;28.47;19.97;;;;;;;8.39;66.33;99963.88;1727640;80;20938;-57
2021/11/12 10:32:56;;;;;;;32.03;22.77;;;;;;;8.42;66.43;99962.91;1719388;80;21022;-58
2021/11/12 10:35:26;;;;;;;26.20;19.00;;;;;;;8.47;66.54;99958.23;1713389;81;20980;-57
2021/11/12 10:37:53;;;;;;;25.53;18.67;;;;;;;8.54;66.59;99961.10;1717924;81;22263;-56
2021/11/12 10:40:22;;;;;;;25.33;18.57;;;;;;;8.62;66.72;99962.57;1714907;82;20974;-58
2021/11/12 10:42:54;;;;;;;25.83;19.40;;;;;;;8.70;66.74;99968.53;1717735;82;20946;-57
2021/11/12 10:48:08;;;;;;;20.83;15.77;;;;;;;8.89;66.72;99953.95;1853720;75;22505;-57
2021/11/12 10:50:38;;;;;;;22.83;16.10;;;;;;;8.87;66.75;99961.65;1807636;77;21004;-57
2021/11/12 10:53:12;;;;;;;19.83;16.33;;;;;;;8.88;66.90;99962.06;1811558;77;21500;-57
2021/11/12 10:55:42;;;;;;;24.30;17.73;;;;;;;8.85;67.07;99963.05;1815632;77;20953;-57
2021/11/12 10:58:11;;;;;;;23.67;16.87;;;;;;;8.84;67.18;99951.92;1813663;77;21377;-57
2021/11/12 11:00:45;;;;;;;22.50;15.73;;;;;;;8.84;67.28;99944.34;1816883;77;20910;-57
2021/11/12 11:03:23;;;;;;;20.40;15.83;;;;;;;8.88;67.37;99947.30;1817410;77;20886;-57
2021/11/12 11:05:55;;;;;;;17.83;13.57;;;;;;;8.92;67.38;99951.16;1818035;77;21124;-56
2021/11/12 11:08:24;;;;;;;18.57;15.43;;;;;;;9.01;67.47;99952.16;1817643;77;20937;-57
2021/11/12 11:10:54;;;;;;;19.17;14.43;;;;;;;9.09;67.41;99947.36;1822641;77;20914;-57
2021/11/12 11:13:28;;;;;;;19.67;14.17;;;;;;;9.18;67.36;99954.19;1815734;77;20858;-56
2021/11/12 11:15:59;;;;;;;22.10;15.27;;;;;;;9.26;67.28;99955.22;1816401;77;21849;-57
2021/11/12 11:18:40;;;;;;;19.07;13.27;;;;;;;9.29;67.16;99949.23;1815240;77;21069;-56
2021/11/12 11:21:14;;;;;;;20.72;16.30;;;;;;;9.31;67.02;99957.24;1815686;77;20949;-57
2021/11/12 11:23:58;;;;;;;23.95;15.75;;;;;;;9.30;66.88;99955.48;1811806;77;20960;-57
2021/11/12 11:26:43;;;;;;;19.45;14.35;;;;;;;9.28;66.96;99962.72;1798043;77;21080;-57
2021/11/12 11:29:12;;;;;;;23.95;16.55;;;;;;;9.28;66.99;99961.38;1809724;77;22556;-57
2021/11/12 11:31:39;;;;;;;26.27;19.05;;;;;;;9.29;66.86;99955.08;1799228;77;21112;-58
2021/11/12 11:34:06;;;;;;;21.07;16.47;;;;;;;9.31;66.63;99963.95;1797956;79;21506;-57
2021/11/12 11:36:38;;;;;;;27.27;18.67;;;;;;;9.29;66.51;99969.38;1795574;79;20925;-58
2021/11/12 11:39:08;;;;;;;29.07;21.07;;;;;;;9.26;66.19;99964.16;1800070;77;20962;-57
2021/11/12 11:41:35;;;;;;;28.52;20.32;;;;;;;9.23;66.12;99962.92;1791871;78;21045;-58
2021/11/12 11:44:01;;;;;;;25.30;19.75;;;;;;;9.21;66.13;99959.88;1791815;79;22364;-57
2021/11/12 11:46:34;;;;;;;26.97;18.50;;;;;;;9.20;66.00;99959.47;1794024;78;21052;-57
2021/11/12 11:49:02;;;;;;;30.82;20.88;;;;;;;9.19;66.05;99953.69;1809100;78;21454;-57
2021/11/12 11:51:34;;;;;;;23.42;18.20;;;;;;;9.18;66.10;99955.53;1807177;78;21268;-58
2021/11/12 11:54:07;;;;;;;23.70;17.83;;;;;;;9.21;66.07;99950.48;1809335;78;20913;-58
2021/11/12 11:56:48;;;;;;;27.35;16.85;;;;;;;9.24;66.04;99951.25;1806324;78;21338;-57
2021/11/12 11:59:24;;;;;;;22.32;16.85;;;;;;;9.24;66.17;99949.02;1808341;78;21048;-58
2021/11/12 12:02:03;;;;;;;23.43;17.60;;;;;;;9.25;66.14;99953.47;1807338;78;21016;-57
2021/11/12 12:04:38;;;;;;;23.43;18.33;;;;;;;9.26;66.12;99954.75;1804172;78;21013;-58
2021/11/12 12:07:14;;;;;;;;;;;;;;;9.26;66.05;99958.78;1810413;78;21107;-57
2021/11/12 12:10:07;;;;;;;20.62;15.53;;;;;;;9.26;66.09;99955.22;1806326;78;21057;-58
2021/11/12 12:12:38;;;;;;;22.20;15.93;;;;;;;9.24;66.15;99953.93;1785671;78;21390;-58
2021/11/12 12:15:12;;;;;;;20.65;15.43;;;;;;;9.23;66.23;99953.52;1808786;78;21009;-58
2021/11/12 12:17:43;;;;;;;22.23;16.40;;;;;;;9.23;66.27;99954.86;1804740;78;21088;-57
2021/11/12 12:20:30;;;;;;;20.82;15.93;;;;;;;9.23;66.42;99958.02;1808585;78;20961;-58
2021/11/12 12:37:06;;;;;;;;;;;;;;;9.34;66.68;99968.75;1805008;78;21124;-56
2021/11/12 12:40:12;;;;;;;24.70;14.27;;;;;;;9.35;66.65;99968.28;1800329;78;20670;-55
2021/11/12 13:25:58;;;;;;;15.47;10.27;;;;;;;9.19;68.29;99990.82;1774732;80;20964;-57
2021/11/12 13:28:44;;;;;;;15.15;11.68;;;;;;;9.18;68.39;99999.84;1777308;78;21293;-56
2021/11/12 13:31:19;;;;;;;17.37;12.47;;;;;;;9.18;68.47;99999.84;1779056;80;20988;-56
2021/11/12 13:33:57;;;;;;;15.80;11.65;;;;;;;9.17;68.54;100007.48;1775007;80;20873;-55
2021/11/12 13:36:30;;;;;;;15.20;12.20;;;;;;;9.17;68.57;100004.80;1778343;80;20947;-56
2021/11/12 13:39:10;;;;;;;16.45;13.08;;;;;;;9.18;68.63;100005.67;1781698;80;20909;-55
2021/11/12 13:41:42;;;;;;;18.92;13.20;;;;;;;9.17;68.62;100009.30;1779808;80;20949;-56
2021/11/12 13:44:14;;;;;;;22.45;13.85;;;;;;;9.14;68.64;100012.08;1782067;80;21924;-55
2021/11/12 13:46:56;;;;;;;18.57;14.28;;;;;;;9.11;68.67;100012.60;1780297;80;21366;-57
2021/11/12 13:49:33;;;;;;;18.95;14.00;;;;;;;9.08;68.75;100012.73;1776510;80;20933;-56
2021/11/12 13:52:06;;;;;;;22.85;13.62;;;;;;;9.04;68.75;100011.09;1778595;80;20886;-57
2021/11/12 13:54:40;;;;;;;15.80;10.55;;;;;;;8.98;68.81;100012.67;1776381;80;20909;-56
2021/11/12 13:57:09;;;;;;;15.87;12.30;;;;;;;8.93;68.90;100014.63;1779925;79;21323;-55
2021/11/12 13:59:35;;;;;;;14.30;10.08;;;;;;;8.87;68.99;100013.53;1774680;80;21326;-57
2021/11/12 14:02:03;;;;;;;13.58;9.93;;;;;;;8.83;69.12;100011.03;1778257;80;20898;-57
2021/11/12 14:04:30;;;;;;;14.67;9.83;;;;;;;8.81;69.23;100017.79;1776744;80;20905;-56
2021/11/12 14:06:57;;;;;;;15.78;11.00;;;;;;;8.79;69.31;100017.42;1780868;80;20953;-56
2021/11/12 14:09:33;;;;;;;15.88;11.03;;;;;;;8.75;69.37;100017.15;1780931;80;20889;-56
2021/11/12 14:12:11;;;;;;;14.40;11.08;;;;;;;8.71;69.45;100023.08;1776477;80;21112;-57
2021/11/12 14:14:38;;;;;;;17.83;12.23;;;;;;;8.66;69.49;100033.12;1773074;80;22106;-55
2021/11/12 14:17:25;;;;;;;16.77;11.83;;;;;;;8.59;69.58;100033.78;1782294;80;20878;-57
2021/11/12 14:19:56;;;;;;;16.97;11.53;;;;;;;8.53;69.67;100043.39;1715840;80;22008;-56
2021/11/12 14:22:31;;;;;;;19.83;11.67;;;;;;;8.44;69.83;100046.40;1771670;80;20961;-56
2021/11/12 14:25:15;;;;;;;16.47;10.43;;;;;;;8.35;69.99;100039.55;1773506;80;22153;-56
2021/11/12 14:27:58;;;;;;;18.83;12.07;;;;;;;8.29;70.23;100047.78;1774353;78;20933;-57
2021/11/12 14:35:32;;;;;;;17.33;12.33;;;;;;;8.23;70.70;100052.02;1771880;80;21873;-55
2021/11/12 14:46:50;;;;;;;19.87;14.83;;;;;;;8.10;70.93;100059.17;1772494;80;21068;-55
2021/11/12 14:49:15;;;;;;;20.23;14.23;;;;;;;8.00;71.08;100067.97;1759932;80;21028;-56
2021/11/12 14:51:56;;;;;;;21.60;14.73;;;;;;;7.93;71.17;100072.66;1766872;80;21130;-55
2021/11/12 14:54:12;;;;;;;22.73;13.97;;;;;;;7.87;71.24;100071.53;1761114;80;21495;-57
2021/11/12 14:56:46;;;;;;;20.47;14.10;;;;;;;7.81;71.46;100073.08;1767257;80;20973;-56
2021/11/12 14:59:16;;;;;;;20.73;14.53;;;;;;;7.77;71.66;100068.73;1763682;80;20886;-56
2021/11/12 15:01:42;;;;;;;22.87;14.40;;;;;;;7.75;71.64;100081.29;1761463;80;21091;-56
2021/11/12 15:04:10;;;;;;;19.70;13.70;;;;;;;7.74;71.79;100084.05;1757858;80;21119;-57
2021/11/12 15:06:36;;;;;;;21.17;14.70;;;;;;;7.72;71.90;100088.56;1761421;80;22496;-57
2021/11/12 15:09:06;;;;;;;26.33;16.63;;;;;;;7.69;71.87;100080.61;1762722;80;21051;-56
2021/11/12 15:11:34;;;;;;;23.00;17.20;;;;;;;7.64;71.82;100090.14;1761982;80;21123;-56
2021/11/12 15:14:11;;;;;;;26.23;17.10;;;;;;;7.57;71.74;100092.61;1761573;80;21517;-57
2021/11/12 15:16:34;;;;;;;25.63;17.10;;;;;;;7.51;71.71;100090.09;1739712;80;21140;-56
2021/11/12 15:19:04;;;;;;;23.33;18.33;;;;;;;7.41;71.73;100094.84;1768418;80;20917;-57
2021/11/12 15:21:36;;;;;;;27.90;18.80;;;;;;;7.31;71.69;100093.84;1765822;80;21053;-57
2021/11/12 15:24:07;;;;;;;24.87;18.13;;;;;;;7.18;71.81;100096.88;1762447;80;22086;-57
2021/11/12 15:26:50;;;;;;;28.97;19.50;;;;;;;7.08;71.76;100102.52;1763230;80;21087;-58
2021/11/12 15:29:14;;;;;;;23.03;15.03;;;;;;;6.95;72.22;100099.33;1758392;80;21409;-57
2021/11/12 15:31:47;;;;;;;28.47;18.23;;;;;;;6.87;72.20;100110.71;1762522;80;21114;-57
2021/11/12 15:34:07;;;;;;;33.43;20.57;;;;;;;6.78;72.42;100109.16;1758436;80;21119;-57